createdAt,value
2016-11-30T00:00:03.020Z,-3.22
2016-11-30T00:05:02.410Z,-3.23
2016-11-30T00:10:02.761Z,-3.22
2016-11-30T00:15:03.083Z,-3.22
2016-11-30T00:20:02.524Z,-3.23
2016-11-30T00:25:02.854Z,-3.25
2016-11-30T00:30:02.168Z,-3.3
2016-11-30T00:35:02.506Z,-3.33
2016-11-30T00:40:02.835Z,-3.35
2016-11-30T00:45:02.167Z,-3.36
2016-11-30T00:50:02.478Z,-3.38
2016-11-30T00:55:02.881Z,-3.36
2016-11-30T01:00:02.259Z,-3.36
2016-11-30T01:05:02.582Z,-3.35
2016-11-30T01:10:02.936Z,-3.33
2016-11-30T01:15:02.298Z,-3.31
2016-11-30T01:20:02.736Z,-3.32
2016-11-30T01:25:03.091Z,-3.3
2016-11-30T01:30:02.404Z,-3.28
2016-11-30T01:35:02.747Z,-3.26
2016-11-30T01:40:03.100Z,-3.27
2016-11-30T01:45:02.443Z,-3.26
2016-11-30T01:50:02.769Z,-3.25
2016-11-30T01:55:03.133Z,-3.24
2016-11-30T02:00:02.479Z,-3.23
2016-11-30T02:05:02.861Z,-3.21
2016-11-30T02:10:02.217Z,-3.18
2016-11-30T02:15:02.562Z,-3.16
2016-11-30T02:20:02.982Z,-3.13
2016-11-30T02:25:02.307Z,-3.08
2016-11-30T02:30:02.640Z,-3.04
2016-11-30T02:35:02.943Z,-2.98
2016-11-30T02:40:02.300Z,-2.9
2016-11-30T02:45:02.646Z,-2.84
2016-11-30T02:50:02.959Z,-2.79
2016-11-30T02:55:02.316Z,-2.76
2016-11-30T03:00:02.675Z,-2.72
2016-11-30T03:05:02.994Z,-2.68
2016-11-30T03:10:02.318Z,-2.64
2016-11-30T03:15:02.633Z,-2.59
2016-11-30T03:20:03.034Z,-2.57
2016-11-30T03:25:02.329Z,-2.52
2016-11-30T03:30:02.667Z,-2.51
2016-11-30T03:35:03.036Z,-2.49
2016-11-30T03:40:02.346Z,-2.47
2016-11-30T03:45:02.640Z,-2.46
2016-11-30T03:50:02.967Z,-2.43
2016-11-30T03:55:02.473Z,-2.41
2016-11-30T04:00:02.849Z,-2.38
2016-11-30T04:05:02.232Z,-2.36
2016-11-30T04:10:02.578Z,-2.36
2016-11-30T04:15:02.911Z,-2.33
2016-11-30T04:20:02.345Z,-2.32
2016-11-30T04:25:02.727Z,-2.29
2016-11-30T04:30:03.075Z,-2.28
2016-11-30T04:35:02.405Z,-2.28
2016-11-30T04:40:02.750Z,-2.28
2016-11-30T04:45:03.117Z,-2.29
2016-11-30T04:50:02.473Z,-2.31
2016-11-30T04:55:02.815Z,-2.29
2016-11-30T05:00:02.159Z,-2.28
2016-11-30T05:05:02.447Z,-2.24
2016-11-30T05:10:02.802Z,-2.23
2016-11-30T05:15:03.125Z,-2.23
2016-11-30T05:20:02.581Z,-2.23
2016-11-30T05:25:02.985Z,-2.2
2016-11-30T05:30:02.346Z,-2.1
2016-11-30T05:35:02.711Z,-2.05
2016-11-30T05:40:02.882Z,-2.05
2016-11-30T05:45:02.182Z,-1.98
2016-11-30T05:50:02.540Z,-1.91
2016-11-30T05:55:02.886Z,-1.88
2016-11-30T06:00:02.282Z,-1.86
2016-11-30T06:05:02.790Z,-1.83
2016-11-30T06:10:02.199Z,-1.78
2016-11-30T06:15:02.544Z,-1.75
2016-11-30T06:20:03.001Z,-1.7
2016-11-30T06:25:02.323Z,-1.58
2016-11-30T06:30:02.685Z,-1.55
2016-11-30T06:35:03.028Z,-1.48
2016-11-30T06:40:02.416Z,-1.48
2016-11-30T06:45:02.753Z,-1.49
2016-11-30T06:50:03.112Z,-1.36
2016-11-30T06:55:02.458Z,-1.2
2016-11-30T07:00:02.870Z,-1.16
2016-11-30T07:05:02.230Z,-1.14
2016-11-30T07:10:02.615Z,-1.09
2016-11-30T08:50:02.811Z,1.32
2016-11-30T08:55:02.177Z,1.51
2016-11-30T09:00:02.578Z,1.7
2016-11-30T09:05:02.907Z,1.82
2016-11-30T09:10:02.300Z,1.94
2016-11-30T09:15:02.669Z,2.05
2016-11-30T09:20:03.136Z,2.11
2016-11-30T09:25:02.442Z,2.19
2016-11-30T09:30:02.847Z,2.26
2016-11-30T09:35:02.172Z,2.36
2016-11-30T09:40:02.553Z,2.41
2016-11-30T09:45:02.906Z,2.47
2016-11-30T09:50:02.256Z,2.61
2016-11-30T09:55:02.608Z,2.52
2016-11-30T10:00:02.940Z,2.43
2016-11-30T10:05:02.293Z,2.4
2016-11-30T10:10:02.662Z,2.49
2016-11-30T10:15:03.007Z,2.58
2016-11-30T10:20:02.420Z,2.72
2016-11-30T10:25:02.806Z,2.83
2016-11-30T10:30:03.119Z,2.91
2016-11-30T10:35:02.447Z,2.96
2016-11-30T10:40:02.802Z,2.91
2016-11-30T10:45:03.111Z,2.84
2016-11-30T10:50:02.429Z,2.76
2016-11-30T10:55:02.789Z,2.72
2016-11-30T11:00:03.109Z,2.66
2016-11-30T11:05:02.440Z,2.62
2016-11-30T11:10:02.820Z,2.61
2016-11-30T11:15:02.153Z,2.69
2016-11-30T11:20:02.641Z,2.83
2016-11-30T11:25:02.968Z,2.93
2016-11-30T11:30:02.339Z,3.02
2016-11-30T11:35:02.733Z,3.14
2016-11-30T11:40:03.087Z,3.24
2016-11-30T11:45:02.467Z,3.33
2016-11-30T11:50:02.832Z,3.42
2016-11-30T11:55:02.172Z,3.5
2016-11-30T12:00:02.598Z,3.55
2016-11-30T12:05:02.923Z,3.57
2016-11-30T12:10:02.286Z,3.59
2016-11-30T12:15:02.661Z,3.54
2016-11-30T12:20:03.100Z,3.5
2016-11-30T12:25:02.404Z,3.47
2016-11-30T12:30:02.790Z,3.43
2016-11-30T12:35:03.151Z,3.4
2016-11-30T12:40:02.495Z,3.39
2016-11-30T12:45:02.865Z,3.39
2016-11-30T12:50:02.239Z,3.39
2016-11-30T12:55:02.703Z,3.42
2016-11-30T13:00:03.043Z,3.44
2016-11-30T13:05:02.430Z,3.49
2016-11-30T13:10:02.844Z,3.53
2016-11-30T13:15:02.202Z,3.56
2016-11-30T13:20:02.652Z,3.58
2016-11-30T13:25:02.979Z,3.58
2016-11-30T13:30:02.319Z,3.58
2016-11-30T13:35:02.653Z,3.58
2016-11-30T13:40:03.007Z,3.57
2016-11-30T13:45:02.391Z,3.55
2016-11-30T13:50:02.767Z,3.49
2016-11-30T13:55:03.102Z,3.48
2016-11-30T14:00:02.447Z,3.5
2016-11-30T14:05:02.801Z,3.56
2016-11-30T14:10:03.160Z,3.6
2016-11-30T14:15:02.508Z,3.62
2016-11-30T14:20:02.947Z,3.62
2016-11-30T14:25:02.281Z,3.63
2016-11-30T14:30:02.683Z,3.63
2016-11-30T14:35:03.050Z,3.6
2016-11-30T14:40:02.385Z,3.6
2016-11-30T14:45:02.704Z,3.6
2016-11-30T14:50:03.031Z,3.61
2016-11-30T14:55:02.390Z,3.62
2016-11-30T15:00:02.757Z,3.71
2016-11-30T15:05:03.112Z,3.77
2016-11-30T15:10:02.496Z,3.79
2016-11-30T15:15:02.835Z,3.79
2016-11-30T15:20:02.320Z,3.77
2016-11-30T15:25:02.690Z,3.76
2016-11-30T15:30:03.038Z,3.76
2016-11-30T15:35:02.386Z,3.75
2016-11-30T15:40:02.751Z,3.75
2016-11-30T15:45:03.106Z,3.79
2016-11-30T15:50:02.445Z,3.82
2016-11-30T15:55:02.810Z,3.85
2016-11-30T16:00:02.146Z,3.95
2016-11-30T16:05:02.506Z,4.03
2016-11-30T16:10:02.937Z,4.09
2016-11-30T16:15:02.270Z,4.19
2016-11-30T16:20:02.735Z,4.26
2016-11-30T16:25:03.107Z,4.29
2016-11-30T16:30:02.454Z,4.36
2016-11-30T16:38:58.456Z,4.39
2016-11-30T16:40:02.177Z,4.42
2016-11-30T16:45:02.547Z,4.43
2016-11-30T16:50:02.867Z,4.41
2016-11-30T16:55:02.156Z,4.38
2016-11-30T17:00:02.491Z,4.34
2016-11-30T17:05:02.805Z,4.32
2016-11-30T17:10:03.148Z,4.31
2016-11-30T17:15:02.438Z,4.3
2016-11-30T17:20:02.840Z,4.28
2016-11-30T17:25:02.188Z,4.29
2016-11-30T17:30:02.507Z,4.3
2016-11-30T17:35:02.842Z,4.27
2016-11-30T17:40:02.176Z,4.26
2016-11-30T17:45:02.521Z,4.24
2016-11-30T17:50:02.848Z,4.24
2016-11-30T17:55:02.257Z,4.24
2016-11-30T18:00:02.640Z,4.21
2016-11-30T18:05:03.073Z,4.18
2016-11-30T18:10:02.449Z,4.16
2016-11-30T18:15:02.736Z,4.15
2016-11-30T18:20:02.160Z,4.14
2016-11-30T18:25:02.497Z,4.14
2016-11-30T18:30:02.778Z,4.18
2016-11-30T18:35:03.126Z,4.21
2016-11-30T18:40:02.442Z,4.22
2016-11-30T18:45:02.770Z,4.29
2016-11-30T18:50:03.132Z,4.3
2016-11-30T18:55:02.437Z,4.34
2016-11-30T19:00:02.763Z,4.38
2016-11-30T19:05:03.105Z,4.37
2016-11-30T19:10:02.450Z,4.38
2016-11-30T19:15:02.770Z,4.39
2016-11-30T19:20:02.277Z,4.37
2016-11-30T19:25:02.622Z,4.35
2016-11-30T19:30:20.749Z,4.37
2016-11-30T19:35:03.095Z,4.36
2016-11-30T19:40:03.023Z,4.36
2016-11-30T19:45:02.396Z,4.38
2016-11-30T19:50:02.772Z,4.42
2016-11-30T19:55:03.137Z,4.44
2016-11-30T20:00:02.517Z,4.45
2016-11-30T20:05:02.877Z,4.46
2016-11-30T20:10:02.287Z,4.49
2016-11-30T20:15:02.668Z,4.53
2016-11-30T20:20:03.109Z,4.54
2016-11-30T20:25:02.472Z,4.56
2016-11-30T20:30:02.828Z,4.6
2016-11-30T20:35:02.212Z,4.64
2016-11-30T20:40:02.605Z,4.67
2016-11-30T20:45:02.921Z,4.69
2016-11-30T20:50:02.318Z,4.76
2016-11-30T20:55:02.687Z,4.79
2016-11-30T21:00:03.086Z,4.8
2016-11-30T21:05:02.448Z,4.83
2016-11-30T21:10:02.788Z,4.84
2016-11-30T21:15:03.121Z,4.86
2016-11-30T21:20:02.623Z,4.88
2016-11-30T21:25:03.033Z,4.89
2016-11-30T21:30:02.412Z,4.91
2016-11-30T21:35:02.879Z,4.92
2016-11-30T21:40:02.309Z,4.91
2016-11-30T21:45:02.680Z,4.91
2016-11-30T21:50:03.136Z,4.86
2016-11-30T21:55:02.514Z,4.81
2016-11-30T22:00:02.872Z,4.77
2016-11-30T22:05:02.236Z,4.78
2016-11-30T22:10:02.594Z,4.77
2016-11-30T22:15:02.956Z,4.75
2016-11-30T22:20:02.372Z,4.77
2016-11-30T22:25:02.761Z,4.8
2016-11-30T22:30:03.140Z,4.81
2016-11-30T22:35:02.489Z,4.86
2016-11-30T22:40:02.813Z,4.9
2016-11-30T22:45:02.167Z,4.92
2016-11-30T22:50:02.558Z,4.92
2016-11-30T22:55:02.910Z,4.95
2016-11-30T23:00:02.285Z,4.98
2016-11-30T23:05:02.674Z,5.02
2016-11-30T23:10:03.010Z,5.09
2016-11-30T23:15:02.367Z,5.15
2016-11-30T23:20:02.797Z,5.16
2016-11-30T23:25:02.183Z,5.18
2016-11-30T23:30:02.528Z,5.2
2016-11-30T23:35:02.887Z,5.18
2016-11-30T23:40:02.244Z,5.19
2016-11-30T23:45:02.589Z,5.18
2016-11-30T23:50:02.975Z,5.17
2016-11-30T23:55:02.284Z,5.19
